Terminal Aerodrome Forecast
Issued by NWS

Home | Current Version | Previous Version | Text Only | Print | Product List | Glossary On
Versions: 1 2 3 4 5 6 7 8 9 10 11 12 13 14
162
FTUS42 KMLB 111720
TAFISM
TAF
KISM 111720Z 1118/1218 VRB06KT P6SM SKC
     FM112000 23004KT P6SM SKC
     FM121500 23008KT P6SM SKC=

USA.gov is the U.S. government's official web portal to all federal, state and local government web resources and services.